Time;durP1;ratioP1;P1;durP2;ratioP2;P2;SDS_P1;SDS_P2;PMS_P1;PMS_P2;Temp;Humidity;BMP_temperature;BMP_pressure;BME280_temperature;BME280_humidity;BME280_pressure;Samples;Min_cycle;Max_cycle;Signal;HPM_P1;HPM_P2
2021/01/23 00:01:15;;;;;;;11.25;6.00;;;;;;;4.77;77.92;99187.42;1717825;82;21226;-77
2021/01/23 00:03:41;;;;;;;14.70;6.60;;;;;;;4.72;77.89;99197.32;1718332;82;21205;-77
2021/01/23 00:06:08;;;;;;;11.95;6.22;;;;;;;4.67;77.97;99202.97;1718396;82;21231;-77
2021/01/23 00:08:34;;;;;;;12.85;6.85;;;;;;;4.61;77.96;99210.31;1701009;83;27846;-77
2021/01/23 00:11:01;;;;;;;13.20;6.33;;;;;;;4.54;77.93;99209.55;1718595;83;21193;-77
2021/01/23 00:13:27;;;;;;;13.15;6.33;;;;;;;4.47;77.92;99206.66;1721409;82;21222;-77
2021/01/23 00:15:53;;;;;;;9.28;5.17;;;;;;;4.40;77.96;99217.84;1717062;83;21533;-77
2021/01/23 00:18:20;;;;;;;10.10;5.15;;;;;;;4.33;77.91;99218.80;1715682;83;21228;-77
2021/01/23 00:20:46;;;;;;;9.55;5.10;;;;;;;4.25;77.96;99218.89;1715432;83;21489;-77
2021/01/23 00:23:12;;;;;;;11.35;6.62;;;;;;;4.21;78.11;99211.28;1716353;82;21182;-77
2021/01/23 00:25:38;;;;;;;9.95;5.60;;;;;;;4.17;77.90;99213.45;1715129;82;21222;-77
2021/01/23 00:28:05;;;;;;;9.85;5.67;;;;;;;4.04;77.95;99201.28;1715870;83;21210;-77
2021/01/23 00:30:31;;;;;;;;;;;;;;;4.01;78.10;99205.16;1718511;82;22397;-77
2021/01/23 00:32:58;;;;;;;6.22;3.83;;;;;;;3.97;78.28;99210.73;1716472;82;20230;-77
2021/01/23 00:35:24;;;;;;;9.23;4.83;;;;;;;3.96;78.27;99212.04;1714926;82;21206;-77
2021/01/23 00:37:50;;;;;;;8.38;4.90;;;;;;;3.95;78.27;99211.19;1715786;83;21213;-77
2021/01/23 00:40:17;;;;;;;9.85;4.85;;;;;;;3.90;78.17;99211.67;1715354;83;21645;-77
2021/01/23 00:42:43;;;;;;;9.03;4.87;;;;;;;3.84;78.17;99208.34;1693391;83;21196;-77
2021/01/23 00:45:11;;;;;;;8.90;4.60;;;;;;;3.81;78.31;99203.27;1715352;83;21619;-77
2021/01/23 00:47:37;;;;;;;9.08;4.83;;;;;;;3.81;78.42;99202.83;1717238;82;21210;-77
2021/01/23 00:50:05;;;;;;;11.15;6.20;;;;;;;3.79;78.26;99198.16;1714919;83;21174;-77
2021/01/23 00:52:31;;;;;;;9.25;5.35;;;;;;;3.79;78.29;99203.71;1716312;83;21194;-77
2021/01/23 00:54:58;;;;;;;13.08;6.58;;;;;;;3.74;78.27;99210.16;1716842;83;21236;-77
2021/01/23 00:57:24;;;;;;;13.88;6.50;;;;;;;3.76;78.45;99211.41;1715317;82;21182;-77
2021/01/23 00:59:50;;;;;;;9.33;5.20;;;;;;;3.77;78.38;99200.33;1705762;82;21284;-77
2021/01/23 01:02:16;;;;;;;10.75;6.05;;;;;;;3.75;78.49;99209.29;1715338;83;21672;-77
2021/01/23 01:04:43;;;;;;;11.40;5.62;;;;;;;3.77;78.51;99215.66;1715687;82;21181;-77
2021/01/23 01:07:09;;;;;;;7.22;4.50;;;;;;;3.78;78.51;99218.20;1715269;82;21237;-77
2021/01/23 01:09:35;;;;;;;7.25;4.37;;;;;;;3.75;78.40;99214.83;1716147;83;21185;-77
2021/01/23 01:12:01;;;;;;;8.25;4.60;;;;;;;3.66;78.26;99200.44;1716015;83;21218;-77
2021/01/23 01:14:28;;;;;;;7.25;4.50;;;;;;;3.56;78.26;99198.44;1715300;83;21207;-77
2021/01/23 01:16:54;;;;;;;8.10;4.72;;;;;;;3.52;78.46;99201.05;1715625;83;21201;-77
2021/01/23 01:19:20;;;;;;;7.50;4.53;;;;;;;3.51;78.53;99211.70;1715377;83;22079;-77
2021/01/23 01:21:46;;;;;;;7.20;4.42;;;;;;;3.52;78.57;99213.39;1715728;83;21217;-77
2021/01/23 01:24:13;;;;;;;7.40;4.35;;;;;;;3.50;78.54;99204.05;1715911;83;21177;-77
2021/01/23 01:26:39;;;;;;;7.67;4.12;;;;;;;3.41;78.34;99197.75;1712775;83;21217;-77
2021/01/23 01:29:05;;;;;;;7.28;3.80;;;;;;;3.33;78.33;99197.39;1716263;83;21209;-77
2021/01/23 01:31:31;;;;;;;6.25;3.77;;;;;;;3.24;78.30;99198.75;1715138;83;21652;-77
2021/01/23 01:33:58;;;;;;;6.40;3.52;;;;;;;3.09;78.25;99189.98;1716412;83;21217;-77
2021/01/23 01:36:24;;;;;;;5.10;3.00;;;;;;;2.99;78.41;99177.72;1715598;83;21210;-77
2021/01/23 01:38:50;;;;;;;6.67;3.83;;;;;;;2.96;78.45;99173.07;1715029;82;21230;-77
2021/01/23 01:41:16;;;;;;;5.17;3.47;;;;;;;2.92;78.52;99176.51;1717141;82;21210;-77
2021/01/23 01:43:47;;;;;;;6.35;3.70;;;;;;;2.86;78.43;99170.17;1717061;82;21603;-77
2021/01/23 01:46:14;;;;;;;6.87;3.83;;;;;;;2.83;78.62;99174.88;1714992;83;21591;-77
2021/01/23 01:48:42;;;;;;;6.42;4.12;;;;;;;2.79;78.49;99176.19;1715319;82;21199;-77
2021/01/23 01:51:08;;;;;;;9.28;4.90;;;;;;;2.73;78.47;99175.80;1716282;83;21739;-77
2021/01/23 01:53:38;;;;;;;6.87;4.15;;;;;;;2.66;78.53;99167.34;1717405;82;21655;-77
2021/01/23 01:56:03;;;;;;;7.83;4.47;;;;;;;2.62;78.63;99161.84;1715224;82;21212;-77
2021/01/23 01:58:29;;;;;;;7.28;4.85;;;;;;;2.61;78.69;99158.03;1715741;82;21482;-77
2021/01/23 02:00:55;;;;;;;10.65;4.15;;;;;;;2.57;78.65;99162.77;1715685;83;21202;-77
2021/01/23 02:03:35;;;;;;;8.63;4.78;;;;;;;2.58;78.81;99161.91;1715462;82;21217;-77
2021/01/23 02:06:10;;;;;;;7.47;4.40;;;;;;;2.57;78.80;99163.61;1715622;82;21181;-76
2021/01/23 02:09:32;;;;;;;14.13;4.62;;;;;;;2.55;78.75;99173.41;1707393;83;22361;-76
2021/01/23 02:12:24;;;;;;;8.05;4.85;;;;;;;2.51;78.82;99167.48;1716323;82;21217;-76
2021/01/23 02:15:08;;;;;;;10.40;4.95;;;;;;;2.52;78.83;99160.25;1722414;82;21237;-76
2021/01/23 02:17:51;;;;;;;8.30;4.33;;;;;;;2.52;78.81;99155.57;1723718;82;21168;-76
2021/01/23 02:21:08;;;;;;;7.15;4.33;;;;;;;2.51;78.81;99154.73;1719751;81;22226;-76
2021/01/23 02:23:45;;;;;;;10.18;5.55;;;;;;;2.45;78.75;99161.14;1723892;81;22220;-76
2021/01/23 02:26:25;;;;;;;12.60;6.70;;;;;;;2.46;78.96;99167.09;1700993;83;21677;-76
2021/01/23 02:29:15;;;;;;;14.15;5.65;;;;;;;2.49;79.09;99169.20;1710639;83;21193;-76
2021/01/23 02:31:51;;;;;;;10.08;5.20;;;;;;;2.46;78.88;99169.22;1722526;82;21196;-76
2021/01/23 02:34:21;;;;;;;11.08;5.17;;;;;;;2.48;79.01;99173.03;1722699;82;21504;-76
2021/01/23 02:36:49;;;;;;;6.85;4.42;;;;;;;2.50;79.05;99170.89;1723468;82;21238;-76
2021/01/23 02:39:16;;;;;;;12.25;6.30;;;;;;;2.53;78.98;99167.47;1723934;81;21186;-76
2021/01/23 02:41:46;;;;;;;10.00;5.12;;;;;;;2.52;78.93;99169.61;1723920;82;21185;-76
2021/01/23 02:44:13;;;;;;;6.92;4.12;;;;;;;2.51;78.85;99161.10;1724262;81;21212;-76
2021/01/23 02:46:40;;;;;;;9.00;4.65;;;;;;;2.48;78.84;99162.41;1723940;83;21201;-76
2021/01/23 02:49:07;;;;;;;7.47;4.83;;;;;;;2.46;78.88;99160.72;1719835;82;21231;-76
2021/01/23 02:51:47;;;;;;;9.78;5.30;;;;;;;2.47;79.07;99167.52;1723751;82;28334;-76
2021/01/23 02:54:34;;;;;;;5.90;3.70;;;;;;;2.48;79.08;99167.50;1723024;81;21198;-76
2021/01/23 02:57:02;;;;;;;;;;;;;;;2.50;78.94;99153.46;1705953;81;22294;-75
2021/01/23 02:59:31;;;;;;;9.33;4.92;;;;;;;2.40;78.84;99156.93;1700972;83;20313;-75
2021/01/23 03:01:58;;;;;;;12.23;5.50;;;;;;;2.37;79.12;99162.90;1725422;81;21657;-75
2021/01/23 03:04:25;;;;;;;12.30;5.97;;;;;;;2.41;79.22;99158.20;1725540;82;21145;-75
2021/01/23 03:06:51;;;;;;;10.63;6.35;;;;;;;2.43;79.14;99148.83;1725296;81;21097;-75
2021/01/23 03:09:23;;;;;;;9.80;5.72;;;;;;;2.42;79.12;99139.91;1725610;83;21555;-75
2021/01/23 03:11:50;;;;;;;8.98;6.00;;;;;;;2.42;79.19;99129.28;1725499;81;21145;-75
2021/01/23 03:14:17;;;;;;;8.23;5.78;;;;;;;2.43;79.23;99131.41;1722956;83;21142;-75
2021/01/23 03:16:51;;;;;;;12.45;6.60;;;;;;;2.47;79.23;99133.07;1719647;82;21166;-75
2021/01/23 03:19:17;;;;;;;12.00;6.83;;;;;;;2.48;79.27;99124.56;1719023;83;21128;-75
2021/01/23 03:21:44;;;;;;;;;;;;;;;2.52;79.30;99125.80;1722405;83;21146;-75
2021/01/23 03:24:10;;;;;;;14.70;8.20;;;;;;;2.56;79.41;99121.52;1719769;82;20279;-75
2021/01/23 03:26:37;;;;;;;13.98;7.50;;;;;;;2.60;79.39;99123.20;1719271;82;22405;-75
2021/01/23 03:29:03;;;;;;;13.68;8.15;;;;;;;2.63;79.34;99116.33;1719979;83;21142;-75
2021/01/23 03:31:30;;;;;;;14.85;7.78;;;;;;;2.68;79.49;99112.47;1719892;82;27405;-75
2021/01/23 03:33:56;;;;;;;12.82;6.65;;;;;;;2.74;79.49;99117.52;1718279;82;21199;-75
2021/01/23 03:36:24;;;;;;;17.27;8.45;;;;;;;2.77;79.38;99117.49;1718725;81;21181;-75
2021/01/23 03:38:51;;;;;;;14.55;8.58;;;;;;;2.80;79.49;99112.36;1718405;83;21281;-75
2021/01/23 03:41:18;;;;;;;15.93;8.23;;;;;;;2.87;79.49;99114.44;1719403;82;21118;-75
2021/01/23 03:43:45;;;;;;;15.48;7.67;;;;;;;2.90;79.45;99110.15;1718610;82;21304;-75
2021/01/23 03:46:13;;;;;;;13.75;8.20;;;;;;;2.93;79.46;99108.84;1718451;81;21674;-75
2021/01/23 03:48:39;;;;;;;12.18;7.53;;;;;;;2.96;79.39;99110.52;1718305;83;21223;-75
2021/01/23 03:51:06;;;;;;;12.30;7.15;;;;;;;2.97;79.34;99100.72;1708926;81;21854;-75
2021/01/23 03:53:32;;;;;;;;;;;;;;;2.97;79.34;99095.62;1721891;83;21753;-75
2021/01/23 03:55:59;;;;;;;10.03;6.50;;;;;;;2.97;79.42;99087.95;1717914;82;20305;-75
2021/01/23 03:58:25;;;;;;;10.32;5.83;;;;;;;2.99;79.45;99083.25;1718328;82;27787;-75
2021/01/23 04:00:51;;;;;;;19.17;6.42;;;;;;;3.04;79.47;99083.64;1719940;82;21261;-75
2021/01/23 04:03:18;;;;;;;10.05;6.65;;;;;;;3.05;79.43;99084.90;1718684;83;21217;-75
2021/01/23 04:05:44;;;;;;;12.58;6.40;;;;;;;3.10;79.49;99098.89;1718453;81;21186;-75
2021/01/23 04:08:10;;;;;;;12.55;7.53;;;;;;;3.14;79.50;99093.71;1718810;83;21214;-75
2021/01/23 04:10:37;;;;;;;15.05;7.53;;;;;;;3.18;79.51;99092.81;1718634;81;21201;-75
2021/01/23 04:13:05;;;;;;;11.68;6.08;;;;;;;3.20;79.41;99096.20;1718806;82;21581;-75
2021/01/23 04:15:31;;;;;;;12.63;6.05;;;;;;;3.23;79.47;99082.55;1723588;83;22293;-75
2021/01/23 04:17:57;;;;;;;10.08;6.40;;;;;;;3.22;79.40;99066.81;1715311;83;21642;-75
2021/01/23 04:20:23;;;;;;;13.40;6.65;;;;;;;3.24;79.47;99081.69;1707404;82;21665;-75
2021/01/23 04:22:50;;;;;;;14.93;7.10;;;;;;;3.27;79.44;99094.43;1717098;83;21174;-75
2021/01/23 04:25:16;;;;;;;10.72;7.20;;;;;;;3.28;79.44;99090.58;1707547;83;21167;-75
2021/01/23 04:27:42;;;;;;;12.50;7.10;;;;;;;3.29;79.46;99097.38;1720760;82;21580;-75
2021/01/23 04:30:11;;;;;;;16.77;7.58;;;;;;;3.31;79.47;99102.47;1709388;82;21213;-75
2021/01/23 04:32:38;;;;;;;14.03;7.80;;;;;;;3.33;79.50;99101.59;1709593;82;21266;-75
2021/01/23 04:35:06;;;;;;;;;;;;;;;3.37;79.47;99105.39;1717028;82;21590;-75
2021/01/23 04:37:32;;;;;;;16.80;8.28;;;;;;;3.39;79.54;99098.56;1716906;82;20748;-75
2021/01/23 04:39:59;;;;;;;11.65;8.05;;;;;;;3.39;79.54;99084.07;1710628;83;21659;-75
2021/01/23 04:42:25;;;;;;;16.85;8.60;;;;;;;3.41;79.55;99074.69;1710879;82;21222;-75
2021/01/23 04:44:51;;;;;;;14.85;7.53;;;;;;;3.44;79.57;99070.81;1711848;82;21468;-75
2021/01/23 04:47:17;;;;;;;13.78;7.80;;;;;;;3.44;79.49;99070.81;1709488;83;21201;-75
2021/01/23 04:49:44;;;;;;;12.37;7.78;;;;;;;3.44;79.52;99074.64;1711571;83;21237;-75
2021/01/23 04:52:10;;;;;;;17.20;7.47;;;;;;;3.44;79.49;99076.36;1708728;82;21718;-75
2021/01/23 04:54:36;;;;;;;16.77;8.00;;;;;;;3.44;79.49;99080.19;1722120;83;21677;-75
2021/01/23 04:57:03;;;;;;;10.72;6.22;;;;;;;3.44;79.53;99081.03;1717666;83;21169;-75
2021/01/23 04:59:30;;;;;;;15.40;7.40;;;;;;;3.44;79.53;99082.31;1711573;82;21130;-75
2021/01/23 05:02:21;;;;;;;13.60;7.25;;;;;;;3.44;79.51;99079.76;1718764;83;21559;-75
2021/01/23 05:04:56;;;;;;;14.13;7.00;;;;;;;3.45;79.56;99080.17;1646587;82;5000865;-75
2021/01/23 05:07:39;;;;;;;14.98;6.37;;;;;;;3.51;79.72;99084.36;1717075;83;21175;-75
2021/01/23 05:10:24;;;;;;;12.03;5.75;;;;;;;3.52;79.60;99085.63;1709694;83;21132;-75
2021/01/23 05:13:02;;;;;;;9.50;6.50;;;;;;;3.53;79.54;99084.76;1701411;83;21159;-75
2021/01/23 05:15:32;;;;;;;8.70;6.17;;;;;;;3.53;79.53;99076.25;1646271;86;21134;-75
2021/01/23 05:18:07;;;;;;;13.18;6.33;;;;;;;3.52;79.54;99062.63;1692053;83;21257;-75
2021/01/23 05:20:41;;;;;;;7.33;5.87;;;;;;;3.52;79.49;99060.06;1691853;83;21123;-75
2021/01/23 05:23:21;;;;;;;13.68;6.58;;;;;;;3.51;79.48;99047.31;1683715;84;21145;-75
2021/01/23 05:25:53;;;;;;;11.45;5.95;;;;;;;3.51;79.50;99046.03;1688603;83;21134;-75
2021/01/23 05:28:37;;;;;;;10.75;7.17;;;;;;;3.50;79.51;99037.95;1673732;85;21143;-75
2021/01/23 05:31:07;;;;;;;13.95;9.23;;;;;;;3.48;79.53;99035.84;1680518;84;21257;-75
2021/01/23 05:33:35;;;;;;;14.70;7.67;;;;;;;3.49;79.57;99024.77;1686799;84;21142;-75
2021/01/23 05:36:12;;;;;;;8.35;7.30;;;;;;;3.49;79.65;99024.77;1703959;84;21202;-75
2021/01/23 05:38:44;;;;;;;11.88;7.15;;;;;;;3.48;79.57;99026.48;1689164;84;21193;-76
2021/01/23 05:41:14;;;;;;;8.83;6.00;;;;;;;3.46;79.60;99021.81;1672152;84;21647;-76
2021/01/23 05:43:49;;;;;;;12.68;7.20;;;;;;;3.46;79.63;99019.70;1689222;84;21626;-76
2021/01/23 05:46:29;;;;;;;11.10;7.17;;;;;;;3.46;79.63;99019.26;1650222;85;21222;-76
2021/01/23 05:48:56;;;;;;;14.73;7.35;;;;;;;3.44;79.57;99008.22;1686378;84;21237;-76
2021/01/23 05:51:24;;;;;;;13.18;7.37;;;;;;;3.43;79.68;99003.97;1702590;83;21196;-76
2021/01/23 05:53:51;;;;;;;15.78;7.60;;;;;;;3.44;79.68;99003.53;1686377;84;21211;-76
2021/01/23 05:56:17;;;;;;;13.90;7.35;;;;;;;3.44;79.74;98996.72;1677489;84;22471;-76
2021/01/23 05:58:46;;;;;;;15.32;8.58;;;;;;;3.45;79.76;98984.79;1674445;83;21733;-76
2021/01/23 06:01:17;;;;;;;13.68;7.17;;;;;;;3.46;79.81;98976.26;1665849;85;21166;-76
2021/01/23 06:03:45;;;;;;;13.93;8.03;;;;;;;3.47;79.73;98974.11;1668785;84;21675;-76
2021/01/23 06:06:11;;;;;;;14.20;8.28;;;;;;;3.45;79.73;98966.91;1674606;84;21214;-76
2021/01/23 06:08:51;;;;;;;12.88;9.08;;;;;;;3.41;79.74;98960.99;1673575;84;21262;-76
2021/01/23 06:11:25;;;;;;;15.32;9.80;;;;;;;3.41;79.79;98962.27;1696903;83;21239;-76
2021/01/23 06:13:56;;;;;;;14.63;9.15;;;;;;;3.43;79.87;98983.53;1624903;87;21257;-75
2021/01/23 06:16:37;;;;;;;15.75;9.83;;;;;;;3.45;79.86;98988.19;1620884;86;21241;-75
2021/01/23 06:19:09;;;;;;;19.07;11.15;;;;;;;3.47;79.86;98990.72;1621952;87;21289;-76
2021/01/23 06:21:48;;;;;;;16.95;10.53;;;;;;;3.46;79.81;98994.14;1624343;86;21256;-76
2021/01/23 06:24:17;;;;;;;22.67;11.33;;;;;;;3.45;79.80;99000.12;1629481;87;21298;-76
2021/01/23 06:26:58;;;;;;;18.48;10.95;;;;;;;3.45;79.87;98989.90;1629844;87;21375;-76
2021/01/23 06:29:35;;;;;;;13.08;9.73;;;;;;;3.45;79.85;98981.80;1629312;86;21289;-76
2021/01/23 06:32:17;;;;;;;;;;;;;;;3.42;79.80;98980.56;1633859;86;21254;-76
2021/01/23 06:34:52;;;;;;;19.15;10.28;;;;;;;3.41;79.90;98965.25;1625130;86;21195;-76
2021/01/23 06:37:33;;;;;;;15.25;10.23;;;;;;;3.38;79.91;98963.59;1624768;86;21292;-74
2021/01/23 06:40:12;;;;;;;16.12;9.65;;;;;;;3.33;79.90;98962.38;1630966;87;21370;-76
2021/01/23 06:42:51;;;;;;;13.38;9.78;;;;;;;3.30;79.93;98956.02;1628098;86;21658;-76
2021/01/23 06:45:33;;;;;;;12.03;9.85;;;;;;;3.27;80.01;98949.68;1630725;86;21270;-76
2021/01/23 06:48:00;;;;;;;14.07;9.15;;;;;;;3.26;80.03;98950.97;1605772;87;21790;-78
2021/01/23 06:50:39;;;;;;;21.07;10.70;;;;;;;3.23;80.04;98959.52;1634519;84;22499;-78
2021/01/23 06:53:10;;;;;;;12.75;9.63;;;;;;;3.21;80.11;98953.59;1691690;82;21198;-78
2021/01/23 06:55:54;;;;;;;14.80;9.63;;;;;;;3.19;80.09;98951.92;1675073;82;21198;-78
2021/01/23 06:58:26;;;;;;;16.82;9.53;;;;;;;3.15;80.12;98951.11;1688120;83;21210;-78
2021/01/23 07:01:01;;;;;;;13.20;9.38;;;;;;;3.13;80.18;98937.95;1732319;81;21399;-78
2021/01/23 07:03:30;;;;;;;18.05;11.25;;;;;;;3.10;80.19;98932.48;1741989;80;21150;-78
2021/01/23 07:06:02;;;;;;;18.23;11.40;;;;;;;3.09;80.30;98918.03;1733485;82;21902;-79
2021/01/23 07:08:31;;;;;;;15.38;10.08;;;;;;;3.05;80.29;98913.82;1732267;80;21218;-79
2021/01/23 07:11:21;;;;;;;15.53;10.85;;;;;;;3.02;80.36;98901.53;1742754;82;21746;-79
2021/01/23 07:14:06;;;;;;;20.20;11.08;;;;;;;3.02;80.50;98898.97;1734698;80;21255;-79
2021/01/23 07:16:35;;;;;;;23.93;11.83;;;;;;;3.02;80.58;98890.04;1739823;82;21190;-79
2021/01/23 07:19:07;;;;;;;15.85;11.05;;;;;;;3.00;80.49;98882.40;1742054;82;21198;-80
2021/01/23 07:21:40;;;;;;;17.80;11.12;;;;;;;2.99;80.59;98874.33;1736331;80;21599;-79
2021/01/23 07:24:09;;;;;;;15.05;10.98;;;;;;;2.97;80.61;98873.07;1743537;80;21111;-79
2021/01/23 07:26:37;;;;;;;14.83;10.05;;;;;;;2.96;80.71;98867.55;1744790;80;21004;-79
2021/01/23 07:29:03;;;;;;;31.45;17.40;;;;;;;2.95;80.61;98865.87;1743340;80;21547;-80
2021/01/23 07:31:33;;;;;;;24.02;14.00;;;;;;;2.93;80.68;98851.00;1748427;82;21512;-77
2021/01/23 07:34:03;;;;;;;15.55;10.60;;;;;;;2.91;80.68;98838.69;1742428;80;21230;-77
2021/01/23 07:36:39;;;;;;;38.17;18.52;;;;;;;2.89;80.67;98845.52;1730554;82;21227;-77
2021/01/23 07:39:09;;;;;;;21.27;12.50;;;;;;;2.85;80.75;98836.66;1744884;80;21337;-77
2021/01/23 07:41:40;;;;;;;63.33;27.30;;;;;;;2.81;80.87;98824.80;1727715;82;21184;-79
2021/01/23 07:44:10;;;;;;;20.68;12.33;;;;;;;2.81;80.91;98810.33;1736219;80;21461;-80
2021/01/23 07:46:41;;;;;;;27.22;16.00;;;;;;;2.78;80.90;98810.80;1747395;81;21627;-78
2021/01/23 07:49:10;;;;;;;18.40;12.43;;;;;;;2.77;80.99;98802.30;1710712;82;154673;-78
2021/01/23 07:51:36;;;;;;;15.78;9.70;;;;;;;2.77;81.05;98797.20;1713725;83;21202;-78
2021/01/23 07:54:11;;;;;;;18.48;12.80;;;;;;;2.75;81.10;98790.42;1709956;82;21242;-79
2021/01/23 07:56:51;;;;;;;22.87;15.15;;;;;;;2.74;81.12;98789.58;1686860;83;22239;-79
2021/01/23 07:59:17;;;;;;;15.10;9.45;;;;;;;2.71;81.12;98781.97;1693680;83;21226;-79
2021/01/23 08:01:44;;;;;;;17.12;11.90;;;;;;;2.70;81.13;98771.34;1708773;82;21189;-79
2021/01/23 08:04:31;;;;;;;17.10;9.45;;;;;;;2.68;81.18;98772.23;1706538;83;21208;-79
2021/01/23 08:07:18;;;;;;;10.55;7.75;;;;;;;2.68;81.19;98769.68;1701527;83;21618;-79
2021/01/23 08:09:45;;;;;;;16.93;10.90;;;;;;;2.66;81.22;98764.16;1706193;82;21241;-79
2021/01/23 08:12:19;;;;;;;18.80;10.20;;;;;;;2.66;81.31;98762.89;1708786;83;22547;-79
2021/01/23 08:14:54;;;;;;;13.43;9.45;;;;;;;2.67;81.39;98753.53;1688144;83;21123;-79
2021/01/23 08:17:38;;;;;;;20.05;10.00;;;;;;;2.68;81.42;98751.39;1663688;83;21233;-79
2021/01/23 08:20:10;;;;;;;19.50;12.10;;;;;;;2.69;81.41;98750.95;1675100;85;21149;-79
2021/01/23 08:23:00;;;;;;;14.43;9.98;;;;;;;2.68;81.41;98742.45;1665899;85;21463;-79
2021/01/23 08:25:28;;;;;;;17.50;11.70;;;;;;;2.69;81.48;98737.77;1667563;83;21119;-79
2021/01/23 08:27:56;;;;;;;16.55;9.68;;;;;;;2.70;81.57;98734.34;1678133;84;21167;-78
2021/01/23 08:30:24;;;;;;;20.70;13.48;;;;;;;2.68;81.57;98718.65;1665599;83;21166;-78
2021/01/23 08:32:51;;;;;;;26.80;14.80;;;;;;;2.68;81.64;98713.55;1676630;85;21910;-78
2021/01/23 08:35:20;;;;;;;16.62;10.25;;;;;;;2.70;81.71;98708.83;1669441;84;21168;-78
2021/01/23 08:37:47;;;;;;;15.40;10.80;;;;;;;2.71;81.79;98697.76;1661654;85;21559;-78
2021/01/23 08:40:19;;;;;;;20.50;12.90;;;;;;;2.71;81.62;98703.30;1685844;83;21138;-78
2021/01/23 08:42:46;;;;;;;15.20;10.72;;;;;;;2.71;81.82;98704.13;1670028;84;21135;-78
2021/01/23 08:45:13;;;;;;;17.90;11.80;;;;;;;2.73;81.78;98701.12;1665955;85;21665;-78
2021/01/23 08:47:40;;;;;;;27.27;14.45;;;;;;;2.75;81.83;98696.00;1637464;85;21158;-78
2021/01/23 08:50:09;;;;;;;18.60;11.12;;;;;;;2.75;81.90;98696.84;1673020;85;21115;-78
2021/01/23 08:52:36;;;;;;;21.10;11.68;;;;;;;2.77;81.91;98687.45;1679710;85;21214;-78
2021/01/23 08:55:07;;;;;;;17.73;11.57;;;;;;;2.76;82.13;98684.49;1679225;83;21769;-78
2021/01/23 08:57:34;;;;;;;19.30;13.75;;;;;;;2.78;82.22;98688.30;1664633;85;21235;-78
2021/01/23 09:00:00;;;;;;;;;;;;;;;2.76;82.25;98683.65;1674178;83;21568;-78
2021/01/23 09:02:26;;;;;;;17.10;12.18;;;;;;;2.77;82.38;98682.78;1677752;85;20278;-78
2021/01/23 09:04:53;;;;;;;21.37;13.03;;;;;;;2.75;82.29;98687.07;1678038;83;21210;-78
2021/01/23 09:07:19;;;;;;;18.30;12.85;;;;;;;2.75;82.36;98683.24;1677390;85;21233;-78
2021/01/23 09:09:47;;;;;;;16.07;10.45;;;;;;;2.77;82.40;98677.68;1683156;83;21239;-78
2021/01/23 09:12:14;;;;;;;18.00;12.00;;;;;;;2.78;82.42;98676.38;1665319;85;21216;-78
2021/01/23 09:14:40;;;;;;;21.45;13.35;;;;;;;2.79;82.37;98669.56;1665775;85;21203;-78
2021/01/23 09:17:07;;;;;;;22.98;13.75;;;;;;;2.78;82.27;98662.34;1686806;83;22324;-78
2021/01/23 09:19:33;;;;;;;;;;;;;;;2.77;82.33;98652.16;1708977;82;21206;-78
2021/01/23 09:21:59;;;;;;;21.17;13.65;;;;;;;2.79;82.44;98651.70;1696641;83;20256;-78
2021/01/23 09:24:25;;;;;;;23.15;13.95;;;;;;;2.80;82.40;98650.41;1692025;83;21203;-78
2021/01/23 09:26:52;;;;;;;24.65;14.58;;;;;;;2.81;82.44;98647.42;1701836;82;21203;-78
2021/01/23 09:29:18;;;;;;;24.50;16.87;;;;;;;2.82;82.48;98651.66;1692724;83;21680;-78
2021/01/23 09:31:44;;;;;;;21.90;15.48;;;;;;;2.84;82.50;98643.11;1693710;82;21180;-78
2021/01/23 09:34:11;;;;;;;27.67;18.12;;;;;;;2.87;82.53;98633.28;1709773;83;21877;-78
2021/01/23 09:36:37;;;;;;;;;;;;;;;2.90;82.59;98629.40;1692970;83;21478;-78
2021/01/23 09:39:04;;;;;;;23.35;15.03;;;;;;;2.93;82.64;98621.69;1698449;82;20642;-79
2021/01/23 09:41:30;;;;;;;23.92;15.83;;;;;;;2.93;82.62;98621.26;1699608;83;21802;-79
2021/01/23 09:43:56;;;;;;;23.22;16.45;;;;;;;2.92;82.54;98614.47;1706413;82;21252;-79
2021/01/23 09:46:23;;;;;;;22.73;16.07;;;;;;;2.94;82.63;98608.90;1710402;83;21659;-79
2021/01/23 09:48:49;;;;;;;27.45;17.23;;;;;;;2.95;82.59;98604.64;1699837;83;21208;-79
2021/01/23 09:51:15;;;;;;;20.45;15.32;;;;;;;2.97;82.64;98606.30;1693143;83;21194;-79
2021/01/23 09:53:41;;;;;;;27.62;18.65;;;;;;;2.98;82.65;98606.70;1709796;82;21237;-79
2021/01/23 09:56:08;;;;;;;27.45;17.07;;;;;;;2.98;82.64;98599.48;1710013;83;21249;-79
2021/01/23 09:58:34;;;;;;;26.75;17.45;;;;;;;2.98;82.63;98587.55;1693361;83;21208;-79
2021/01/23 10:01:00;;;;;;;50.03;26.68;;;;;;;2.98;82.69;98593.94;1699961;82;21452;-79
2021/01/23 10:03:27;;;;;;;38.58;21.33;;;;;;;3.00;82.73;98581.15;1659314;84;308906;-79
2021/01/23 10:05:53;;;;;;;25.48;16.75;;;;;;;2.98;82.72;98580.33;1693137;83;21220;-79
2021/01/23 10:08:19;;;;;;;67.12;37.00;;;;;;;2.97;82.76;98574.81;1688609;83;21802;-79
2021/01/23 10:10:45;;;;;;;34.92;20.72;;;;;;;2.94;82.92;98575.72;1707337;82;22146;-80
2021/01/23 10:13:12;;;;;;;39.75;20.75;;;;;;;2.96;82.93;98568.87;1704111;82;21252;-80
2021/01/23 10:15:38;;;;;;;26.95;18.05;;;;;;;2.97;82.86;98565.88;1694759;83;21250;-80
2021/01/23 10:18:05;;;;;;;24.87;16.95;;;;;;;2.98;82.92;98561.19;1700001;82;21694;-80
2021/01/23 10:20:32;;;;;;;28.15;19.60;;;;;;;2.96;82.87;98559.94;1700023;82;21222;-80
2021/01/23 10:23:00;;;;;;;22.45;15.28;;;;;;;2.96;82.93;98561.22;1708337;83;21193;-79
2021/01/23 10:25:26;;;;;;;22.45;13.83;;;;;;;2.97;82.94;98552.69;1707736;83;21126;-79
2021/01/23 10:27:52;;;;;;;20.05;14.33;;;;;;;3.00;82.98;98551.79;1714821;82;21146;-80
2021/01/23 10:30:20;;;;;;;17.52;12.73;;;;;;;3.01;82.99;98550.08;1712815;82;21641;-80
2021/01/23 10:32:46;;;;;;;21.50;14.18;;;;;;;3.01;82.96;98548.80;1705929;83;21143;-80
2021/01/23 10:35:13;;;;;;;19.95;14.47;;;;;;;2.98;82.96;98540.77;1688476;83;21438;-79
2021/01/23 10:37:39;;;;;;;;;;;;;;;2.99;83.06;98544.56;1705759;82;21145;-79
2021/01/23 10:40:06;;;;;;;20.25;13.98;;;;;;;3.03;83.16;98546.63;1686332;83;20687;-79
2021/01/23 10:42:33;;;;;;;20.97;14.13;;;;;;;3.04;83.13;98537.25;1708115;83;22377;-79
2021/01/23 10:44:59;;;;;;;16.70;13.32;;;;;;;3.05;83.15;98533.39;1711694;82;21243;-79
2021/01/23 10:47:26;;;;;;;30.20;18.92;;;;;;;3.06;83.15;98527.85;1693837;83;21196;-79
2021/01/23 10:49:52;;;;;;;19.85;14.70;;;;;;;3.07;83.23;98521.87;1697423;83;21502;-79
2021/01/23 10:52:19;;;;;;;18.40;15.32;;;;;;;3.09;83.24;98518.42;1711866;83;21285;-79
2021/01/23 10:54:45;;;;;;;33.65;20.88;;;;;;;3.13;83.28;98517.89;1693605;82;21665;-79
2021/01/23 10:57:12;;;;;;;30.80;20.52;;;;;;;3.14;83.28;98506.81;1709176;83;21620;-80
2021/01/23 10:59:38;;;;;;;26.77;19.10;;;;;;;3.17;83.28;98495.27;1706581;82;21199;-80
2021/01/23 11:02:04;;;;;;;22.98;16.45;;;;;;;3.17;83.33;98493.55;1714233;83;21194;-80
2021/01/23 11:04:30;;;;;;;23.35;15.88;;;;;;;3.23;83.37;98498.97;1712095;83;21275;-80
2021/01/23 11:06:57;;;;;;;22.20;13.40;;;;;;;3.25;83.40;98492.95;1703221;83;21196;-80
2021/01/23 11:09:23;;;;;;;38.33;21.12;;;;;;;3.24;83.29;98484.89;1707321;82;22018;-80
2021/01/23 11:11:49;;;;;;;39.25;20.82;;;;;;;3.20;83.22;98484.98;1706617;83;21723;-80
2021/01/23 11:14:15;;;;;;;25.62;16.37;;;;;;;3.17;83.28;98477.39;1704082;83;21178;-80
2021/01/23 11:16:42;;;;;;;24.70;16.90;;;;;;;3.18;83.37;98474.80;1707721;82;21251;-80
2021/01/23 11:19:08;;;;;;;18.90;14.75;;;;;;;3.16;83.32;98467.61;1697558;83;21166;-80
2021/01/23 11:21:35;;;;;;;31.45;17.77;;;;;;;3.18;83.39;98459.92;1703043;82;21238;-80
2021/01/23 11:24:02;;;;;;;37.70;23.83;;;;;;;3.15;83.26;98448.05;1675166;84;21213;-80
2021/01/23 11:26:28;;;;;;;37.35;23.18;;;;;;;3.10;83.36;98449.05;1710011;82;21202;-80
2021/01/23 11:28:54;;;;;;;26.97;18.35;;;;;;;3.13;83.49;98451.08;1708079;83;21203;-80
2021/01/23 11:31:20;;;;;;;27.22;18.75;;;;;;;3.18;83.58;98437.77;1711088;82;21234;-80
2021/01/23 11:33:47;;;;;;;28.75;18.35;;;;;;;3.19;83.55;98428.41;1701317;82;21993;-79
2021/01/23 11:36:13;;;;;;;24.50;18.07;;;;;;;3.21;83.60;98422.39;1714105;83;21663;-80
2021/01/23 11:38:39;;;;;;;21.45;15.72;;;;;;;3.27;83.67;98423.53;1702825;83;21202;-80
2021/01/23 11:41:05;;;;;;;29.45;18.70;;;;;;;3.30;83.65;98421.35;1707768;81;712375;-80
2021/01/23 11:43:32;;;;;;;20.68;15.58;;;;;;;3.32;83.59;98405.55;1739610;82;21195;-80
2021/01/23 11:46:00;;;;;;;30.68;21.33;;;;;;;3.31;83.62;98405.16;1737191;81;22067;-80